Elgin, Arizona
Current Conditions -  °F | °C
As of 12:56 AM on Thursday 23 Oct 2014 (Local Time) from KALK Reporting Station
Clear Clear  
Wind Chill: 52°   Ceiling: Unl
Heat Index: 52°   Visibility: 10mi
Dew Point: 42°   Wind: 5mph
Humidity: 69%   Direction: 280°W
Pressure: 30.19"   Gusts: NA
Location:  31.66°N, 110.53°W
Report Text: KALK 230756Z AUTO 28004KT 10SM CLR 11/06 A3019 RMK AO2 SLP145 T01110056 TSNO
Loading
Personal Weather Stations






























Interactive Weather Map
Tropical Storm Tracking
New forecast layout! Learn more

10-Day Weather Forecast

Advertisements
Track Severe Weather on mobile